Time;durP1;ratioP1;P1;durP2;ratioP2;P2;SDS_P1;SDS_P2;PMS_P1;PMS_P2;Temp;Humidity;BMP_temperature;BMP_pressure;BME280_temperature;BME280_humidity;BME280_pressure;Samples;Min_cycle;Max_cycle;Signal;HPM_P1;HPM_P2
2020/12/05 00:03:03;;;;;;;28.70;13.65;;;;;;;5.75;100.00;94658.66;10441254;28;20036;-74
2020/12/05 00:08:03;;;;;;;30.27;13.98;;;;;;;5.74;100.00;94653.56;10441634;28;20041;-73
2020/12/05 00:13:04;;;;;;;37.08;15.45;;;;;;;5.70;100.00;94657.78;10440785;28;20502;-73
2020/12/05 00:18:04;;;;;;;25.97;14.30;;;;;;;5.69;100.00;94659.63;10440782;28;20048;-73
2020/12/05 00:23:05;;;;;;;27.65;14.15;;;;;;;5.69;100.00;94672.16;10440725;28;20295;-73
2020/12/05 00:28:05;;;;;;;28.98;15.55;;;;;;;5.72;100.00;94672.47;10439515;28;20124;-73
2020/12/05 00:33:06;;;;;;;26.02;13.25;;;;;;;5.81;100.00;94670.19;10439042;28;20044;-73
2020/12/05 00:38:06;;;;;;;25.90;13.52;;;;;;;5.86;100.00;94666.78;10439730;28;20504;-74
2020/12/05 00:43:06;;;;;;;30.83;13.20;;;;;;;5.94;100.00;94675.19;10439747;28;20032;-74
2020/12/05 00:48:07;;;;;;;24.63;11.37;;;;;;;6.05;100.00;94689.50;10440698;28;20029;-74
2020/12/05 00:53:07;;;;;;;23.35;10.45;;;;;;;6.09;100.00;94692.50;10440476;28;21074;-74
2020/12/05 00:58:08;;;;;;;23.25;11.57;;;;;;;6.04;100.00;94692.41;10440090;28;20037;-74
2020/12/05 01:03:08;;;;;;;21.95;11.05;;;;;;;6.19;100.00;94691.84;10445826;28;20037;-74
2020/12/05 01:08:09;;;;;;;22.30;11.32;;;;;;;6.20;100.00;94688.13;10448445;28;20404;-75
2020/12/05 01:13:09;;;;;;;22.23;11.50;;;;;;;6.26;100.00;94697.78;10480648;28;20033;-74
2020/12/05 01:18:10;;;;;;;22.83;11.45;;;;;;;6.20;100.00;94694.25;10446680;28;20098;-73
2020/12/05 01:23:10;;;;;;;23.77;11.85;;;;;;;6.10;100.00;94686.13;10447950;28;20052;-74
2020/12/05 01:28:11;;;;;;;21.57;10.87;;;;;;;6.05;100.00;94686.03;10447900;28;20025;-74
2020/12/05 01:33:11;;;;;;;27.27;12.53;;;;;;;6.05;100.00;94691.38;10447116;28;20068;-74
2020/12/05 01:38:11;;;;;;;27.38;11.52;;;;;;;6.04;100.00;94684.41;10447406;28;20303;-74
2020/12/05 01:43:12;;;;;;;24.60;11.80;;;;;;;6.07;100.00;94683.91;10447381;28;20082;-74
2020/12/05 01:48:14;;;;;;;24.20;11.88;;;;;;;6.16;100.00;94682.44;10447200;28;20287;-74
2020/12/05 01:53:15;;;;;;;23.20;11.68;;;;;;;6.20;100.00;94688.91;10447000;28;20029;-73
2020/12/05 01:58:17;;;;;;;29.17;13.70;;;;;;;6.26;100.00;94690.59;10446865;28;20480;-73
2020/12/05 02:03:17;;;;;;;26.23;12.50;;;;;;;6.25;100.00;94688.16;10487432;28;20036;-73
2020/12/05 02:08:40;;;;;;;28.30;13.30;;;;;;;6.25;100.00;94683.66;10487883;28;20036;-74
2020/12/05 02:13:46;;;;;;;26.15;13.02;;;;;;;6.21;100.00;94682.53;10486456;28;20403;-74
2020/12/05 02:18:50;;;;;;;25.52;12.48;;;;;;;6.18;100.00;94677.66;10487405;28;20136;-74
2020/12/05 02:23:52;;;;;;;30.02;13.35;;;;;;;6.16;100.00;94683.25;10452715;28;20059;-73
2020/12/05 02:28:52;;;;;;;27.95;12.75;;;;;;;6.19;100.00;94660.59;10445130;28;20036;-73
2020/12/05 02:33:53;;;;;;;27.50;13.77;;;;;;;6.19;100.00;94673.16;10446026;28;20044;-73
2020/12/05 02:38:57;;;;;;;25.05;13.20;;;;;;;6.15;100.00;94670.16;10444850;28;20060;-73
2020/12/05 02:44:00;;;;;;;31.63;14.20;;;;;;;5.95;100.00;94676.00;10444940;28;20115;-73
2020/12/05 02:49:01;;;;;;;24.98;12.20;;;;;;;6.06;100.00;94677.00;10444688;28;20029;-73
2020/12/05 02:54:01;;;;;;;21.45;11.27;;;;;;;6.13;100.00;94677.63;10444518;28;20391;-73
2020/12/05 02:59:03;;;;;;;21.97;12.40;;;;;;;6.04;100.00;94677.25;10444873;28;20063;-73
2020/12/05 03:04:03;;;;;;;22.17;12.30;;;;;;;6.04;100.00;94673.75;10443914;28;20287;-73
2020/12/05 03:09:04;;;;;;;17.57;10.40;;;;;;;6.10;100.00;94678.13;10443025;28;20095;-74
2020/12/05 03:14:04;;;;;;;19.73;10.03;;;;;;;6.18;100.00;94674.19;10443771;28;20048;-73
2020/12/05 03:19:05;;;;;;;18.63;9.32;;;;;;;6.12;100.00;94676.00;10443850;28;20303;-73
2020/12/05 03:24:05;;;;;;;21.42;9.52;;;;;;;6.07;100.00;94675.91;10443883;28;20036;-73
2020/12/05 03:29:06;;;;;;;17.37;10.23;;;;;;;6.14;100.00;94673.91;10443774;28;20029;-75
2020/12/05 03:34:06;;;;;;;22.10;10.20;;;;;;;6.19;100.00;94681.16;10443582;28;20287;-75
2020/12/05 03:39:07;;;;;;;16.88;8.50;;;;;;;6.24;100.00;94698.03;10443202;28;20303;-73
2020/12/05 03:44:08;;;;;;;18.43;9.27;;;;;;;6.29;100.00;94698.13;10464099;28;20032;-73
2020/12/05 03:49:08;;;;;;;19.60;10.38;;;;;;;6.26;100.00;94697.78;10482948;28;20279;-75
2020/12/05 03:54:09;;;;;;;20.80;10.67;;;;;;;6.15;100.00;94707.50;10483873;28;20129;-75
2020/12/05 03:59:09;;;;;;;19.90;10.60;;;;;;;6.01;100.00;94706.25;10483049;28;20045;-76
2020/12/05 04:04:10;;;;;;;20.30;9.73;;;;;;;6.01;100.00;94701.72;10483320;28;20147;-76
2020/12/05 04:09:10;;;;;;;18.60;9.25;;;;;;;6.12;100.00;94710.69;10482397;28;20387;-76
2020/12/05 04:14:11;;;;;;;20.15;9.73;;;;;;;6.15;100.00;94695.00;10483418;28;20613;-76
2020/12/05 04:19:11;;;;;;;13.20;7.47;;;;;;;6.11;100.00;94717.06;10483730;28;20483;-76
2020/12/05 04:24:12;;;;;;;17.53;9.73;;;;;;;6.23;100.00;94725.78;10443326;28;20037;-77
2020/12/05 04:29:12;;;;;;;18.70;9.27;;;;;;;6.31;100.00;94721.88;10441447;28;20120;-76
2020/12/05 04:34:13;;;;;;;16.25;9.50;;;;;;;6.28;100.00;94720.53;10441927;28;20368;-75
2020/12/05 04:39:13;;;;;;;19.13;10.68;;;;;;;6.25;100.00;94715.69;10449842;28;20067;-76
2020/12/05 04:44:15;;;;;;;21.38;10.82;;;;;;;6.32;100.00;94726.97;10450096;28;20040;-76
2020/12/05 04:49:16;;;;;;;18.95;11.10;;;;;;;6.33;100.00;94733.94;10449052;28;20464;-77
2020/12/05 04:54:25;;;;;;;20.17;12.57;;;;;;;6.40;100.00;94732.94;10448866;28;20041;-76
2020/12/05 04:59:26;;;;;;;19.73;10.45;;;;;;;6.46;100.00;94731.94;10449218;28;20094;-77
2020/12/05 05:04:26;;;;;;;20.17;12.02;;;;;;;6.40;100.00;94743.63;10448626;28;20036;-77
2020/12/05 05:09:27;;;;;;;23.60;11.52;;;;;;;6.49;100.00;94750.97;10448691;28;20889;-77
2020/12/05 05:14:35;;;;;;;21.98;11.15;;;;;;;6.58;100.00;94748.66;10446860;28;20500;-77
2020/12/05 05:19:36;;;;;;;20.97;11.10;;;;;;;6.46;100.00;94753.31;10448454;28;20906;-78
2020/12/05 05:24:36;;;;;;;21.20;10.30;;;;;;;6.45;100.00;94759.72;10483439;28;20032;-76
2020/12/05 05:29:44;;;;;;;22.02;10.32;;;;;;;6.47;100.00;94757.59;10489462;28;20041;-76
2020/12/05 05:34:46;;;;;;;20.75;11.52;;;;;;;6.40;100.00;94762.31;10488997;28;20461;-76
2020/12/05 05:39:56;;;;;;;22.05;11.25;;;;;;;6.40;100.00;94755.09;10488778;28;20039;-77
2020/12/05 05:45:22;;;;;;;20.25;10.95;;;;;;;6.36;100.00;94761.97;10487046;28;20127;-76
2020/12/05 05:50:23;;;;;;;17.58;9.02;;;;;;;6.47;100.00;94768.28;10471122;28;20039;-76
2020/12/05 05:55:46;;;;;;;24.83;12.93;;;;;;;6.42;100.00;94762.84;10471407;28;20040;-76
2020/12/05 06:00:51;;;;;;;22.65;13.10;;;;;;;6.37;100.00;94768.94;10457503;28;20040;-76
2020/12/05 06:05:53;;;;;;;36.55;18.52;;;;;;;6.43;100.00;94777.81;10445390;28;20028;-76
2020/12/05 06:10:59;;;;;;;24.50;11.00;;;;;;;6.43;100.00;94780.50;10450066;28;20045;-76
2020/12/05 06:16:01;;;;;;;21.88;11.32;;;;;;;6.39;100.00;94790.03;10486962;28;20055;-76
2020/12/05 06:21:01;;;;;;;18.98;9.35;;;;;;;6.41;100.00;94791.41;10486829;28;20048;-76
2020/12/05 06:26:06;;;;;;;24.53;11.43;;;;;;;6.29;100.00;94790.72;10461290;28;20404;-73
2020/12/05 06:31:06;;;;;;;21.38;10.73;;;;;;;6.40;100.00;94794.34;10486179;28;20678;-73
2020/12/05 06:36:28;;;;;;;18.70;10.60;;;;;;;6.30;100.00;94814.47;10466896;28;20033;-73
2020/12/05 06:41:37;;;;;;;19.75;9.88;;;;;;;6.33;100.00;94815.84;10461499;28;21203;-73
2020/12/05 06:46:52;;;;;;;22.55;11.32;;;;;;;6.23;100.00;94827.19;10461184;28;20524;-73
2020/12/05 06:51:52;;;;;;;23.23;12.27;;;;;;;6.10;100.00;94830.19;10473634;28;20032;-72
2020/12/05 06:57:10;;;;;;;20.47;11.37;;;;;;;6.19;100.00;94820.72;10468615;28;20087;-73
2020/12/05 07:02:30;;;;;;;27.73;11.50;;;;;;;6.31;100.00;94810.78;10475290;28;20849;-72
2020/12/05 07:07:31;;;;;;;22.67;12.05;;;;;;;6.50;100.00;94815.84;10443311;28;20143;-73
2020/12/05 07:12:35;;;;;;;23.90;12.75;;;;;;;6.61;100.00;94828.28;10465551;28;20028;-74
2020/12/05 07:17:37;;;;;;;18.55;11.30;;;;;;;6.75;100.00;94818.03;10465492;28;20041;-72
2020/12/05 07:22:37;;;;;;;18.45;9.90;;;;;;;6.55;100.00;94839.94;10467829;28;20036;-73
2020/12/05 07:27:38;;;;;;;20.13;11.02;;;;;;;6.41;100.00;94841.34;10459954;28;20068;-73
2020/12/05 07:32:43;;;;;;;17.38;9.68;;;;;;;6.44;100.00;94843.53;10451344;28;20109;-72
2020/12/05 07:37:45;;;;;;;17.42;11.43;;;;;;;6.63;100.00;94854.75;10482027;28;20033;-72
2020/12/05 07:42:45;;;;;;;15.95;9.35;;;;;;;6.80;100.00;94846.72;10476441;28;20041;-72
2020/12/05 07:47:45;;;;;;;19.83;11.85;;;;;;;7.01;100.00;94850.47;10452876;28;20449;-72
2020/12/05 07:52:46;;;;;;;15.93;10.63;;;;;;;7.01;100.00;94853.13;10478289;28;20048;-72
2020/12/05 07:57:52;;;;;;;20.10;9.57;;;;;;;7.11;100.00;94855.13;10465563;28;20029;-72
2020/12/05 08:03:05;;;;;;;14.52;9.18;;;;;;;7.27;100.00;94859.59;10482614;28;20355;-72
2020/12/05 08:08:06;;;;;;;18.65;9.20;;;;;;;7.45;100.00;94861.16;10470683;28;20453;-72
2020/12/05 08:13:19;;;;;;;20.58;10.23;;;;;;;7.34;100.00;94862.91;10488498;28;20086;-72
2020/12/05 08:18:21;;;;;;;18.98;10.38;;;;;;;7.46;100.00;94865.41;10488363;28;20045;-72
2020/12/05 08:23:28;;;;;;;32.97;12.93;;;;;;;7.60;100.00;94873.88;10490339;28;20035;-72
2020/12/05 08:28:37;;;;;;;18.90;10.60;;;;;;;7.66;100.00;94882.75;10489860;28;20029;-72
2020/12/05 08:33:45;;;;;;;17.13;10.23;;;;;;;7.56;100.00;94888.00;10488905;28;20033;-72
2020/12/05 08:38:46;;;;;;;18.00;9.75;;;;;;;7.69;100.00;94898.31;10489321;28;20051;-71
2020/12/05 08:43:46;;;;;;;16.92;9.27;;;;;;;7.85;100.00;94896.63;10488643;28;20484;-72
2020/12/05 08:48:48;;;;;;;16.48;9.23;;;;;;;8.09;100.00;94897.09;10489783;28;20040;-72
2020/12/05 08:53:49;;;;;;;16.35;9.85;;;;;;;8.29;100.00;94893.81;10489347;28;20051;-73
2020/12/05 08:58:49;;;;;;;14.33;8.80;;;;;;;8.16;100.00;94894.22;10489113;28;20047;-72
2020/12/05 09:03:49;;;;;;;14.03;8.90;;;;;;;7.88;100.00;94904.13;10489036;28;20036;-72
2020/12/05 09:08:50;;;;;;;17.60;9.80;;;;;;;7.83;100.00;94896.88;10489256;28;20035;-72
2020/12/05 09:13:51;;;;;;;15.65;9.70;;;;;;;7.79;100.00;94900.31;10487170;28;20360;-72
2020/12/05 09:18:52;;;;;;;20.50;11.15;;;;;;;7.73;100.00;94887.91;10488821;28;20044;-72
2020/12/05 09:24:04;;;;;;;17.70;8.90;;;;;;;7.80;100.00;94893.88;10488265;28;20040;-72
2020/12/05 09:29:04;;;;;;;15.38;8.43;;;;;;;7.84;100.00;94900.34;10488309;28;20091;-72
2020/12/05 09:34:05;;;;;;;15.00;8.83;;;;;;;8.10;100.00;94905.97;10488201;28;20552;-72
2020/12/05 09:39:06;;;;;;;13.25;7.80;;;;;;;8.11;100.00;94886.19;10487285;28;20286;-72
2020/12/05 09:44:06;;;;;;;12.93;7.85;;;;;;;8.29;100.00;94890.31;10488509;28;20032;-72
2020/12/05 09:49:07;;;;;;;14.85;8.77;;;;;;;8.50;100.00;94870.72;10489274;28;20029;-72
2020/12/05 09:54:07;;;;;;;14.95;8.82;;;;;;;9.10;100.00;94875.94;10489575;28;20090;-72
2020/12/05 09:59:08;;;;;;;14.43;8.67;;;;;;;10.08;100.00;94879.75;10489014;28;20028;-72
2020/12/05 10:04:08;;;;;;;14.18;8.43;;;;;;;10.78;100.00;94868.50;10487134;28;20336;-71
2020/12/05 10:09:09;;;;;;;11.13;7.55;;;;;;;10.98;100.00;94858.81;10486798;28;20029;-71
2020/12/05 10:14:09;;;;;;;11.07;7.70;;;;;;;10.76;100.00;94867.97;10487257;28;20545;-72
2020/12/05 10:19:10;;;;;;;12.15;8.27;;;;;;;10.46;100.00;94876.06;10487369;28;20044;-72
2020/12/05 10:24:10;;;;;;;18.92;10.50;;;;;;;9.90;100.00;94870.31;10487422;28;20040;-72
2020/12/05 10:29:10;;;;;;;16.50;9.07;;;;;;;9.77;100.00;94873.53;10487180;28;20045;-72
2020/12/05 10:34:11;;;;;;;14.37;8.67;;;;;;;9.50;100.00;94865.66;10486044;28;20111;-72
2020/12/05 10:39:13;;;;;;;16.75;9.38;;;;;;;9.45;100.00;94860.28;10478810;28;20036;-72
2020/12/05 10:44:13;;;;;;;15.43;9.18;;;;;;;9.44;100.00;94866.69;10481732;28;20037;-72
2020/12/05 10:49:19;;;;;;;16.27;9.00;;;;;;;9.41;100.00;94860.78;10464562;28;20032;-72
2020/12/05 10:54:20;;;;;;;17.13;9.45;;;;;;;9.33;100.00;94860.47;10444959;28;20295;-73
2020/12/05 10:59:21;;;;;;;19.85;9.25;;;;;;;9.24;100.00;94857.50;10442486;28;20424;-71
2020/12/05 11:04:21;;;;;;;15.20;9.60;;;;;;;10.16;100.00;94856.13;10444421;28;20040;-72
2020/12/05 11:09:22;;;;;;;16.87;9.80;;;;;;;11.25;100.00;94852.28;10444506;28;20871;-72
2020/12/05 11:14:22;;;;;;;14.03;8.97;;;;;;;11.20;100.00;94852.28;10442665;28;20303;-71
2020/12/05 11:19:22;;;;;;;17.53;10.13;;;;;;;11.15;100.00;94844.22;10443982;28;20303;-72
2020/12/05 11:24:23;;;;;;;17.50;11.40;;;;;;;10.90;100.00;94849.41;10442606;28;20785;-72
2020/12/05 11:29:24;;;;;;;20.27;11.43;;;;;;;10.43;100.00;94839.78;10470221;28;20135;-72
2020/12/05 11:34:24;;;;;;;18.27;11.60;;;;;;;10.10;100.00;94844.56;10485192;28;20032;-72
2020/12/05 11:39:25;;;;;;;24.92;11.48;;;;;;;9.70;100.00;94840.78;10484199;28;20036;-71
2020/12/05 11:44:25;;;;;;;20.90;10.47;;;;;;;8.66;100.00;94838.69;10484537;28;20821;-72
2020/12/05 11:49:25;;;;;;;22.75;10.63;;;;;;;8.37;100.00;94847.84;10484185;28;20294;-72
2020/12/05 11:54:26;;;;;;;22.33;10.80;;;;;;;8.23;100.00;94841.28;10483856;28;20073;-72
2020/12/05 11:59:26;;;;;;;21.73;10.75;;;;;;;8.26;100.00;94854.19;10460569;28;20306;-72
2020/12/05 12:04:27;;;;;;;20.00;11.57;;;;;;;8.22;100.00;94839.69;10443031;28;20036;-72
2020/12/05 12:09:27;;;;;;;24.00;11.77;;;;;;;8.15;100.00;94857.81;10443125;28;20291;-72
2020/12/05 12:14:28;;;;;;;24.50;11.98;;;;;;;8.24;100.00;94858.16;10442189;28;20048;-73
2020/12/05 12:19:28;;;;;;;23.65;11.85;;;;;;;8.33;100.00;94857.44;10442604;28;20094;-72
2020/12/05 12:24:28;;;;;;;23.33;13.32;;;;;;;8.24;100.00;94853.63;10450588;28;20122;-72
2020/12/05 12:29:29;;;;;;;31.20;16.08;;;;;;;8.23;100.00;94860.03;10449037;28;20036;-71
2020/12/05 12:34:29;;;;;;;24.95;11.80;;;;;;;8.13;100.00;94862.63;10462137;28;20037;-72
2020/12/05 12:39:31;;;;;;;28.40;13.00;;;;;;;8.14;100.00;94853.53;10453195;28;20432;-71
2020/12/05 12:44:31;;;;;;;27.33;13.23;;;;;;;8.28;100.00;94862.75;10449918;28;20064;-72
2020/12/05 12:49:36;;;;;;;23.58;11.90;;;;;;;8.19;100.00;94877.66;10442509;28;20112;-72
2020/12/05 12:54:37;;;;;;;25.00;12.40;;;;;;;8.29;100.00;94866.22;10441625;28;20115;-72
2020/12/05 12:59:37;;;;;;;29.00;13.33;;;;;;;8.24;100.00;94864.31;10449207;28;20036;-72
2020/12/05 13:04:37;;;;;;;23.30;12.63;;;;;;;8.29;100.00;94882.28;10455550;28;20081;-71
2020/12/05 13:09:38;;;;;;;20.95;10.82;;;;;;;8.23;100.00;94884.13;10458951;28;20033;-71
2020/12/05 13:14:38;;;;;;;22.33;11.00;;;;;;;8.04;100.00;94889.84;10480992;28;20117;-71
2020/12/05 13:19:39;;;;;;;24.75;13.05;;;;;;;7.93;100.00;94892.69;10457804;28;20423;-73
2020/12/05 13:24:39;;;;;;;27.13;12.85;;;;;;;7.98;100.00;94888.19;10449781;28;20082;-71
2020/12/05 13:29:40;;;;;;;28.10;11.67;;;;;;;8.08;100.00;94892.00;10448949;28;20044;-72
2020/12/05 13:34:40;;;;;;;22.52;10.77;;;;;;;8.15;100.00;94882.72;10466610;28;20341;-72
2020/12/05 13:39:41;;;;;;;25.75;12.05;;;;;;;8.31;100.00;94882.88;10489495;28;20029;-72
2020/12/05 13:44:42;;;;;;;27.30;12.23;;;;;;;8.23;100.00;94889.47;10464912;28;20036;-72
2020/12/05 13:49:42;;;;;;;28.38;14.32;;;;;;;8.42;100.00;94884.56;10446665;28;20366;-71
2020/12/05 13:54:43;;;;;;;29.90;14.57;;;;;;;8.37;100.00;94896.03;10447948;28;20131;-71
2020/12/05 13:59:43;;;;;;;31.65;13.50;;;;;;;8.45;100.00;94902.81;10472635;28;20351;-72
2020/12/05 14:04:44;;;;;;;28.67;13.45;;;;;;;8.33;100.00;94894.13;10472183;28;20509;-72
2020/12/05 14:09:45;;;;;;;27.85;14.82;;;;;;;8.17;100.00;94888.63;10487635;28;20024;-72
2020/12/05 14:14:45;;;;;;;25.75;13.82;;;;;;;8.12;100.00;94898.47;10488345;28;20052;-72
2020/12/05 14:19:46;;;;;;;28.77;14.75;;;;;;;8.08;100.00;94894.69;10469079;28;20037;-73
2020/12/05 14:24:46;;;;;;;32.90;15.33;;;;;;;7.82;100.00;94905.16;10446102;28;20032;-72
2020/12/05 14:29:47;;;;;;;33.50;14.82;;;;;;;7.70;100.00;94907.94;10446594;28;20037;-73
2020/12/05 14:34:47;;;;;;;39.58;16.13;;;;;;;7.73;100.00;94903.97;10445661;28;20516;-72
2020/12/05 14:39:48;;;;;;;28.45;15.25;;;;;;;7.73;100.00;94909.31;10446648;28;20036;-73
2020/12/05 14:44:48;;;;;;;31.83;15.02;;;;;;;7.62;100.00;94909.22;10446005;28;20044;-72
2020/12/05 14:49:49;;;;;;;33.00;15.70;;;;;;;7.49;100.00;94914.94;10455714;28;20115;-72
2020/12/05 14:54:49;;;;;;;30.77;14.52;;;;;;;7.49;100.00;94914.94;10486902;28;20043;-72
2020/12/05 14:59:50;;;;;;;40.50;15.77;;;;;;;7.44;100.00;94904.19;10485287;28;20028;-72
2020/12/05 15:04:51;;;;;;;35.33;15.65;;;;;;;7.49;100.00;94907.72;10485909;28;20049;-72
2020/12/05 15:09:51;;;;;;;33.60;16.37;;;;;;;7.46;100.00;94913.56;10464914;28;20841;-73
2020/12/05 15:14:52;;;;;;;33.13;15.75;;;;;;;7.55;100.00;94915.78;10514580;28;20507;-73
2020/12/05 15:19:52;;;;;;;39.45;18.30;;;;;;;7.46;100.00;94926.13;10479010;28;20454;-72
2020/12/05 15:24:53;;;;;;;34.20;17.10;;;;;;;7.59;100.00;94923.09;10478901;28;20044;-72
2020/12/05 15:29:53;;;;;;;39.38;17.17;;;;;;;7.60;100.00;94932.72;10479516;28;20596;-73
2020/12/05 15:34:55;;;;;;;37.03;17.80;;;;;;;7.52;100.00;94922.44;10476035;28;20047;-73
2020/12/05 15:39:56;;;;;;;42.63;18.17;;;;;;;7.55;100.00;94926.50;10473255;28;20501;-73
2020/12/05 15:44:56;;;;;;;39.25;17.67;;;;;;;7.61;100.00;94920.16;10476778;28;20119;-73
2020/12/05 15:49:58;;;;;;;47.80;22.05;;;;;;;7.66;100.00;94915.69;10436506;28;20552;-73
2020/12/05 15:54:59;;;;;;;40.97;18.80;;;;;;;7.63;100.00;94926.88;10439150;28;20081;-73
2020/12/05 16:00:00;;;;;;;42.67;19.00;;;;;;;7.65;100.00;94927.44;10436960;28;20041;-74
2020/12/05 16:05:01;;;;;;;43.42;18.83;;;;;;;7.70;100.00;94924.81;10475464;28;20044;-73
2020/12/05 16:10:03;;;;;;;47.05;21.63;;;;;;;7.84;100.00;94929.78;10483183;28;20123;-73
2020/12/05 16:15:05;;;;;;;54.85;24.13;;;;;;;7.79;100.00;94937.75;10483400;28;20044;-73
2020/12/05 16:20:06;;;;;;;51.60;24.83;;;;;;;7.75;100.00;94942.00;10454986;28;20048;-74
2020/12/05 16:25:07;;;;;;;53.28;22.77;;;;;;;7.64;100.00;94943.72;10440808;28;20120;-74
2020/12/05 16:30:09;;;;;;;61.03;23.20;;;;;;;7.74;100.00;94945.72;10466814;28;20071;-75
2020/12/05 16:35:10;;;;;;;52.00;24.13;;;;;;;7.78;100.00;94938.81;10477848;28;20466;-75
2020/12/05 16:40:12;;;;;;;51.42;21.27;;;;;;;7.79;100.00;94935.88;10461187;28;20079;-75
2020/12/05 16:45:12;;;;;;;50.47;22.17;;;;;;;7.90;100.00;94934.13;10471609;28;20033;-75
2020/12/05 16:50:13;;;;;;;51.60;21.42;;;;;;;7.92;100.00;94934.69;10465632;28;20078;-74
2020/12/05 16:55:14;;;;;;;51.28;23.95;;;;;;;7.95;100.00;94942.19;10475205;28;20133;-75
2020/12/05 17:00:15;;;;;;;58.13;23.80;;;;;;;7.91;100.00;94942.97;10482421;28;20033;-75
2020/12/05 17:05:15;;;;;;;60.40;25.48;;;;;;;7.86;100.00;94943.72;10477187;28;20025;-75
2020/12/05 17:10:16;;;;;;;58.10;26.92;;;;;;;7.82;100.00;94950.63;10470821;28;20866;-76
2020/12/05 17:15:17;;;;;;;62.15;26.80;;;;;;;7.91;100.00;94949.16;10487895;28;20102;-73
2020/12/05 17:20:18;;;;;;;61.78;27.05;;;;;;;7.92;100.00;94948.06;10464622;28;20041;-74
2020/12/05 17:25:18;;;;;;;56.00;24.58;;;;;;;7.96;100.00;94948.38;10454243;28;20036;-74
2020/12/05 17:30:19;;;;;;;51.60;24.35;;;;;;;8.00;100.00;94950.28;10491458;28;20418;-74
2020/12/05 17:35:20;;;;;;;59.22;24.85;;;;;;;8.00;100.00;94955.66;10490582;28;20029;-74
2020/12/05 17:40:20;;;;;;;57.25;24.65;;;;;;;8.08;100.00;94966.97;10478423;28;20037;-74
2020/12/05 17:45:21;;;;;;;52.78;23.30;;;;;;;8.11;100.00;94966.47;10463945;28;20028;-72
2020/12/05 17:50:22;;;;;;;55.78;24.02;;;;;;;8.08;100.00;94972.31;10490247;28;20036;-72
2020/12/05 17:55:23;;;;;;;45.42;23.45;;;;;;;8.19;100.00;94966.00;10489576;28;20039;-72
2020/12/05 18:00:25;;;;;;;57.20;25.20;;;;;;;8.23;100.00;94959.09;10490103;28;20487;-72
2020/12/05 18:05:27;;;;;;;52.33;22.45;;;;;;;8.19;100.00;94956.13;10489434;28;20040;-72
2020/12/05 18:10:28;;;;;;;49.17;22.48;;;;;;;8.20;100.00;94962.28;10489159;28;20035;-72
2020/12/05 18:15:28;;;;;;;59.58;22.77;;;;;;;8.17;100.00;94971.63;10487436;28;20052;-72
2020/12/05 18:20:29;;;;;;;50.88;23.17;;;;;;;8.13;100.00;94967.81;10478042;28;20044;-73
2020/12/05 18:25:29;;;;;;;55.20;23.33;;;;;;;8.10;100.00;94970.22;10446026;28;20075;-72
2020/12/05 18:30:30;;;;;;;54.45;22.20;;;;;;;8.14;100.00;94968.66;10445569;28;20041;-74
2020/12/05 18:35:30;;;;;;;58.92;23.63;;;;;;;8.18;100.00;94980.47;10447596;28;20124;-77
2020/12/05 18:40:32;;;;;;;60.77;24.97;;;;;;;8.19;100.00;94982.06;10468481;28;20398;-74
2020/12/05 18:45:32;;;;;;;49.90;20.10;;;;;;;8.27;100.00;94986.19;10487893;28;20298;-74
2020/12/05 18:50:33;;;;;;;52.92;22.30;;;;;;;8.23;100.00;94991.22;10489211;28;20047;-74
2020/12/05 18:55:33;;;;;;;56.30;22.92;;;;;;;8.21;100.00;94991.47;10487692;28;20032;-73
2020/12/05 19:00:34;;;;;;;63.95;24.40;;;;;;;8.17;100.00;94994.91;10486124;28;20044;-73
2020/12/05 19:05:34;;;;;;;50.40;22.48;;;;;;;8.16;100.00;94991.44;10488163;28;20695;-74
2020/12/05 19:10:36;;;;;;;49.85;22.95;;;;;;;8.19;100.00;94992.78;10486864;28;20032;-74
2020/12/05 19:15:36;;;;;;;48.50;21.30;;;;;;;8.27;100.00;94996.88;10461376;28;20048;-73
2020/12/05 19:20:37;;;;;;;51.55;21.13;;;;;;;8.19;100.00;94987.41;10446278;28;20410;-74
2020/12/05 19:25:39;;;;;;;60.25;23.58;;;;;;;8.11;100.00;94991.38;10445547;28;20523;-74
2020/12/05 19:30:40;;;;;;;50.55;20.95;;;;;;;8.14;100.00;95003.44;10445013;28;20040;-75
2020/12/05 19:35:41;;;;;;;55.22;22.60;;;;;;;8.08;100.00;95007.94;10444613;28;20044;-75
2020/12/05 19:40:42;;;;;;;51.85;22.58;;;;;;;8.13;100.00;95001.81;10459506;28;20032;-75
2020/12/05 19:45:43;;;;;;;57.95;22.40;;;;;;;8.16;100.00;95007.50;10485957;28;20396;-73
2020/12/05 19:50:43;;;;;;;51.10;22.20;;;;;;;8.03;100.00;95008.66;10483639;28;20032;-72
2020/12/05 19:55:44;;;;;;;48.67;22.90;;;;;;;8.01;100.00;95004.66;10485338;28;20070;-74
2020/12/05 20:00:44;;;;;;;48.92;20.67;;;;;;;8.08;100.00;95007.13;10484846;28;20037;-73
2020/12/05 20:05:45;;;;;;;43.70;19.52;;;;;;;7.96;100.00;95012.63;10483854;28;20047;-74
2020/12/05 20:10:48;;;;;;;48.67;20.08;;;;;;;8.04;100.00;95021.00;10485199;28;20029;-73
2020/12/05 20:15:48;;;;;;;47.78;20.13;;;;;;;8.06;100.00;95011.91;10483916;28;20049;-71
2020/12/05 20:20:49;;;;;;;44.17;18.57;;;;;;;8.15;100.00;95013.06;10480985;28;20032;-71
2020/12/05 20:25:49;;;;;;;50.67;21.80;;;;;;;8.19;100.00;95009.66;10455410;28;20291;-72
2020/12/05 20:30:50;;;;;;;57.08;21.50;;;;;;;8.03;100.00;95016.69;10460471;28;20028;-71
2020/12/05 20:35:50;;;;;;;51.27;22.37;;;;;;;7.89;100.00;95012.00;10482226;28;20501;-73
2020/12/05 20:40:50;;;;;;;62.85;23.83;;;;;;;7.95;100.00;95011.78;10480927;28;20507;-75
2020/12/05 20:45:51;;;;;;;52.92;20.63;;;;;;;7.90;100.00;95009.06;10481725;28;20036;-72
2020/12/05 20:50:52;;;;;;;51.65;19.98;;;;;;;7.98;100.00;95008.63;10478190;28;20032;-74
2020/12/05 20:55:54;;;;;;;51.53;22.02;;;;;;;7.98;100.00;95005.97;10482545;28;20032;-74
2020/12/05 21:00:54;;;;;;;50.53;21.00;;;;;;;8.08;100.00;95018.66;10467725;28;20025;-72
2020/12/05 21:05:55;;;;;;;41.55;16.88;;;;;;;8.17;100.00;95021.69;10449623;28;20510;-72
2020/12/05 21:10:55;;;;;;;38.15;17.83;;;;;;;8.13;100.00;95017.88;10468279;28;20037;-72
2020/12/05 21:15:56;;;;;;;32.43;15.37;;;;;;;8.16;100.00;95014.69;10443812;28;20397;-72
2020/12/05 21:20:57;;;;;;;35.30;16.00;;;;;;;8.14;100.00;95022.19;10449937;28;20499;-72
2020/12/05 21:25:57;;;;;;;34.75;16.30;;;;;;;8.03;100.00;95027.41;10451299;28;20124;-72
2020/12/05 21:30:57;;;;;;;35.97;15.87;;;;;;;7.97;100.00;95017.72;10449804;28;20037;-71
2020/12/05 21:35:58;;;;;;;37.33;15.33;;;;;;;8.00;100.00;95022.56;10457319;28;20298;-71
2020/12/05 21:40:59;;;;;;;43.80;19.10;;;;;;;7.86;100.00;95026.69;10475204;28;20047;-71
2020/12/05 21:45:59;;;;;;;44.50;18.55;;;;;;;7.87;100.00;95030.97;10449977;28;20082;-71
2020/12/05 21:51:01;;;;;;;39.20;18.33;;;;;;;7.91;100.00;95023.25;10468538;28;20032;-71
2020/12/05 21:56:02;;;;;;;46.83;22.92;;;;;;;7.75;100.00;95020.38;10454567;28;20360;-72
2020/12/05 22:01:03;;;;;;;55.13;24.40;;;;;;;7.81;100.00;95013.22;10448897;28;20116;-72
2020/12/05 22:06:03;;;;;;;61.05;25.88;;;;;;;7.82;100.00;95017.53;10463789;28;20047;-71
2020/12/05 22:11:03;;;;;;;54.78;25.80;;;;;;;7.82;100.00;95020.19;10477866;28;20075;-71
2020/12/05 22:16:04;;;;;;;53.40;24.55;;;;;;;7.89;100.00;95030.72;10490290;28;20535;-71
2020/12/05 22:21:05;;;;;;;52.75;22.38;;;;;;;7.79;100.00;95016.16;10488719;28;20075;-71
2020/12/05 22:26:05;;;;;;;54.00;24.05;;;;;;;7.74;100.00;95020.63;10487234;28;20044;-78
2020/12/05 22:31:06;;;;;;;41.67;19.27;;;;;;;7.76;100.00;95013.16;10489153;28;20084;-72
2020/12/05 22:36:31;;;;;;;37.53;18.92;;;;;;;7.71;100.00;95016.56;10488195;28;20033;-72
2020/12/05 22:41:35;;;;;;;44.25;17.42;;;;;;;7.75;100.00;95008.88;10460939;28;20047;-72
2020/12/05 22:46:36;;;;;;;28.70;14.55;;;;;;;7.76;100.00;95013.16;10446758;28;20049;-72
2020/12/05 22:51:37;;;;;;;27.92;15.23;;;;;;;7.72;100.00;95007.50;10457865;28;20045;-71